Time;durP1;ratioP1;P1;durP2;ratioP2;P2;SDS_P1;SDS_P2;PMS_P1;PMS_P2;Temp;Humidity;BMP_temperature;BMP_pressure;BME280_temperature;BME280_humidity;BME280_pressure;Samples;Min_cycle;Max_cycle;Signal;HPM_P1;HPM_P2
2022/12/25 00:00:09;;;;;;;8.95;8.55;;;;;;;3.81;100.00;100723.88;5010584;28;20029;-69
2022/12/25 00:02:34;;;;;;;9.52;9.02;;;;;;;3.72;100.00;100715.94;5012164;28;20465;-70
2022/12/25 00:05:00;;;;;;;8.57;8.18;;;;;;;3.84;100.00;100728.06;5010829;28;20096;-70
2022/12/25 00:07:25;;;;;;;8.68;8.27;;;;;;;3.82;100.00;100733.44;5011587;28;20481;-69
2022/12/25 00:09:51;;;;;;;8.80;8.40;;;;;;;3.77;100.00;100719.84;5010944;28;20059;-68
2022/12/25 00:12:18;;;;;;;9.05;8.65;;;;;;;3.95;100.00;100729.78;5012111;28;20025;-69
2022/12/25 00:14:43;;;;;;;9.13;8.73;;;;;;;3.88;100.00;100727.66;5012070;28;20030;-70
2022/12/25 00:17:09;;;;;;;8.80;8.40;;;;;;;3.80;100.00;100721.38;5011206;28;20034;-69
2022/12/25 00:19:35;;;;;;;8.98;8.57;;;;;;;3.91;100.00;100739.72;5012052;28;20502;-69
2022/12/25 00:22:00;;;;;;;8.55;8.15;;;;;;;3.91;100.00;100746.75;5011816;28;20026;-69
2022/12/25 00:24:26;;;;;;;8.70;8.30;;;;;;;3.94;100.00;100742.09;5011932;28;20069;-69
2022/12/25 00:26:51;;;;;;;8.90;8.50;;;;;;;3.87;100.00;100744.38;5012087;28;20374;-69
2022/12/25 00:29:16;;;;;;;8.65;8.25;;;;;;;3.96;100.00;100749.81;5012017;28;20429;-68
2022/12/25 00:31:42;;;;;;;8.77;8.38;;;;;;;3.91;100.00;100747.59;5011773;28;20014;-69
2022/12/25 00:34:07;;;;;;;8.80;8.40;;;;;;;3.79;100.00;100746.78;5010043;28;20125;-69
2022/12/25 00:36:33;;;;;;;8.68;8.27;;;;;;;3.65;100.00;100722.66;5010666;28;20057;-69
2022/12/25 00:38:58;;;;;;;8.90;8.50;;;;;;;3.83;100.00;100755.28;5012048;28;20036;-69
2022/12/25 00:44:11;;;;;;;8.60;8.20;;;;;;;4.00;100.00;100752.06;5011839;28;20600;-69
2022/12/25 00:46:36;;;;;;;8.95;8.55;;;;;;;3.94;100.00;100741.25;5009887;28;20409;-69
2022/12/25 00:49:02;;;;;;;8.93;8.52;;;;;;;3.94;100.00;100749.13;5011971;28;20029;-69
2022/12/25 00:51:28;;;;;;;9.18;8.77;;;;;;;3.99;100.00;100754.84;5011173;28;20064;-70
2022/12/25 00:53:53;;;;;;;8.73;8.32;;;;;;;4.03;100.00;100757.06;5011994;28;20095;-70
2022/12/25 00:56:19;;;;;;;8.60;8.20;;;;;;;3.97;100.00;100760.22;5011869;28;20112;-70
2022/12/25 00:58:45;;;;;;;8.60;8.20;;;;;;;4.05;100.00;100755.16;5011580;28;20053;-69
2022/12/25 01:01:10;;;;;;;8.85;8.45;;;;;;;3.97;100.00;100760.22;5011518;28;20025;-69
2022/12/25 01:03:36;;;;;;;9.23;8.80;;;;;;;3.94;100.00;100747.34;5009925;28;20026;-69
2022/12/25 01:06:06;;;;;;;8.68;8.27;;;;;;;4.02;100.00;100750.16;5011647;28;20030;-69
2022/12/25 01:08:37;;;;;;;9.13;8.73;;;;;;;3.99;100.00;100745.16;5010870;28;20034;-69
2022/12/25 01:11:07;;;;;;;8.95;8.55;;;;;;;4.08;100.00;100754.91;5014078;28;20025;-69
2022/12/25 01:13:35;;;;;;;8.77;8.38;;;;;;;4.10;100.00;100758.22;5015140;28;20025;-69
2022/12/25 01:16:10;;;;;;;8.90;8.50;;;;;;;4.03;100.00;100753.59;5013405;28;20029;-69
2022/12/25 01:18:36;;;;;;;9.00;8.60;;;;;;;4.01;100.00;100742.41;5015150;28;20063;-69
2022/12/25 01:21:06;;;;;;;8.73;8.32;;;;;;;4.06;100.00;100756.00;5015178;28;20061;-69
2022/12/25 01:23:31;;;;;;;9.18;8.77;;;;;;;4.05;100.00;100756.97;5014280;28;20022;-69
2022/12/25 01:26:05;;;;;;;8.45;8.05;;;;;;;4.01;100.00;100761.63;5014614;28;20068;-69
2022/12/25 01:28:31;;;;;;;8.90;8.50;;;;;;;4.08;100.00;100761.94;5015206;28;20030;-69
2022/12/25 01:30:57;;;;;;;8.65;8.25;;;;;;;4.02;100.00;100765.91;5011792;28;20366;-69
2022/12/25 01:33:22;;;;;;;8.88;8.48;;;;;;;4.11;100.00;100762.53;5014655;28;20046;-69
2022/12/25 01:35:48;;;;;;;8.88;8.48;;;;;;;4.07;100.00;100752.41;5014972;28;20038;-70
2022/12/25 01:38:13;;;;;;;9.10;8.70;;;;;;;4.10;100.00;100760.84;5015040;28;20472;-69
2022/12/25 01:40:39;;;;;;;8.85;8.45;;;;;;;4.10;100.00;100758.22;5014614;28;20030;-68
2022/12/25 01:43:24;;;;;;;8.65;8.25;;;;;;;4.17;100.00;100761.16;5014311;28;20096;-69
2022/12/25 01:45:51;;;;;;;8.70;8.30;;;;;;;4.10;100.00;100763.47;5012376;28;20029;-69
2022/12/25 01:48:43;;;;;;;9.23;8.82;;;;;;;4.03;100.00;100746.56;5014905;28;20079;-69
2022/12/25 01:51:30;;;;;;;8.73;8.32;;;;;;;4.10;100.00;100763.47;5010226;28;20037;-69
2022/12/25 01:54:01;;;;;;;8.45;8.05;;;;;;;4.10;100.00;100754.75;5014425;28;20045;-69
2022/12/25 01:56:27;;;;;;;8.55;8.15;;;;;;;4.11;100.00;100753.81;5012240;28;20022;-69
2022/12/25 01:58:54;;;;;;;8.93;8.52;;;;;;;4.15;100.00;100750.81;5012017;28;20022;-68
2022/12/25 02:01:20;;;;;;;9.02;8.63;;;;;;;4.08;100.00;100760.16;5014435;28;20452;-69
2022/12/25 02:03:45;;;;;;;9.10;8.70;;;;;;;4.19;100.00;100759.28;5014270;28;20025;-69
2022/12/25 02:06:11;;;;;;;9.10;8.70;;;;;;;4.14;100.00;100767.53;5014507;28;20037;-69
2022/12/25 02:08:37;;;;;;;9.18;8.77;;;;;;;4.11;100.00;100766.94;5014025;28;20025;-69
2022/12/25 02:11:02;;;;;;;8.77;8.38;;;;;;;4.16;100.00;100770.00;5013779;28;20076;-69
2022/12/25 02:13:28;;;;;;;9.50;9.00;;;;;;;4.12;100.00;100771.25;5014098;28;20117;-69
2022/12/25 02:16:19;;;;;;;8.85;8.45;;;;;;;4.04;100.00;100761.38;5013649;28;20025;-69
2022/12/25 02:18:50;;;;;;;8.60;8.20;;;;;;;4.02;100.00;100773.78;5013976;28;20029;-70
2022/12/25 02:21:38;;;;;;;8.70;8.30;;;;;;;4.04;100.00;100768.38;5012070;28;20018;-70
2022/12/25 02:24:32;;;;;;;8.63;8.23;;;;;;;4.02;100.00;100773.78;5011433;28;20485;-69
2022/12/25 02:27:19;;;;;;;8.50;8.10;;;;;;;4.05;100.00;100770.09;5010990;28;20120;-69
2022/12/25 02:29:53;;;;;;;8.70;8.30;;;;;;;4.06;100.00;100771.75;5013926;28;20025;-69
2022/12/25 02:32:28;;;;;;;;;;;;;;;4.04;100.00;100773.63;5014485;28;20105;-71
2022/12/25 02:34:53;;;;;;;8.30;7.90;;;;;;;4.01;100.00;100779.16;5013087;28;19913;-69
2022/12/25 02:37:33;;;;;;;8.50;8.10;;;;;;;3.93;100.00;100773.72;5014004;28;20052;-69
2022/12/25 02:40:08;;;;;;;8.75;8.35;;;;;;;4.06;100.00;100784.88;5009040;28;20064;-69
2022/12/25 03:08:37;;;;;;;8.45;8.05;;;;;;;4.31;100.00;100820.44;5011498;28;20123;-69
2022/12/25 03:16:49;;;;;;;8.65;8.25;;;;;;;4.37;100.00;100827.81;5013057;28;20034;-69
2022/12/25 03:16:51;;;;;;;8.57;8.18;;;;;;;4.24;100.00;100821.91;5013061;28;20109;-70
2022/12/25 03:27:37;;;;;;;8.70;8.30;;;;;;;4.27;100.00;100843.50;5013165;28;20136;-69
2022/12/25 03:33:04;;;;;;;8.45;8.05;;;;;;;4.30;100.00;100845.84;5012494;28;20033;-69
2022/12/25 03:35:43;;;;;;;9.10;8.70;;;;;;;4.36;100.00;100857.66;5011071;28;20539;-69
2022/12/25 04:36:52;;;;;;;8.73;8.32;;;;;;;4.64;100.00;100899.09;5000040;28;20099;-69
2022/12/25 04:39:18;;;;;;;8.80;8.40;;;;;;;4.75;100.00;100906.06;5005189;28;20029;-69
2022/12/25 04:41:43;;;;;;;8.60;8.20;;;;;;;4.70;100.00;100908.22;5012071;28;20536;-69
2022/12/25 04:44:09;;;;;;;8.75;8.35;;;;;;;4.71;100.00;100915.19;5011448;28;20041;-69
2022/12/25 04:46:34;;;;;;;9.07;8.68;;;;;;;4.75;100.00;100908.69;5012661;28;20112;-69
2022/12/25 04:48:59;;;;;;;9.63;9.13;;;;;;;4.86;100.00;100907.81;5014682;28;20068;-68
2022/12/25 04:51:25;;;;;;;9.50;9.02;;;;;;;4.90;100.00;100901.31;5015660;28;20022;-69
2022/12/25 04:53:52;;;;;;;8.98;8.57;;;;;;;5.03;100.00;100915.09;5014272;28;20447;-70
2022/12/25 04:56:19;;;;;;;9.15;8.75;;;;;;;5.17;100.00;100911.31;5015860;28;20030;-69
2022/12/25 04:58:45;;;;;;;9.10;8.70;;;;;;;5.20;100.00;100921.56;5015600;28;20106;-69
2022/12/25 05:01:12;;;;;;;9.05;8.65;;;;;;;5.21;100.00;100916.19;5015039;28;20022;-69
2022/12/25 05:03:38;;;;;;;9.10;8.70;;;;;;;5.28;100.00;100925.19;5015917;28;20032;-68
2022/12/25 05:06:04;;;;;;;9.13;8.73;;;;;;;5.35;100.00;100917.63;5011863;28;20088;-70
2022/12/25 05:08:31;;;;;;;9.65;9.15;;;;;;;5.51;100.00;100932.94;5015022;28;20436;-69
2022/12/25 05:10:57;;;;;;;8.88;8.48;;;;;;;5.58;100.00;100931.41;5015448;28;20029;-69
2022/12/25 05:13:23;;;;;;;8.90;8.50;;;;;;;5.48;100.00;100939.28;5015700;28;20431;-69
2022/12/25 05:15:48;;;;;;;8.90;8.50;;;;;;;5.34;100.00;100923.00;5012835;28;20512;-69
2022/12/25 05:18:14;;;;;;;8.95;8.55;;;;;;;5.48;100.00;100943.72;5015340;28;20060;-68
2022/12/25 05:20:39;;;;;;;9.18;8.77;;;;;;;5.45;100.00;100957.16;5015136;28;20026;-69
2022/12/25 05:23:05;;;;;;;9.20;8.80;;;;;;;5.44;100.00;100964.22;5014321;28;20440;-69
2022/12/25 05:25:31;;;;;;;8.98;8.57;;;;;;;5.46;100.00;100956.19;5014969;28;20025;-70
2022/12/25 05:27:56;;;;;;;9.50;9.05;;;;;;;5.53;100.00;100960.78;5015262;28;20022;-68
2022/12/25 05:30:22;;;;;;;9.30;8.90;;;;;;;5.60;100.00;100965.53;5014884;28;20030;-69
2022/12/25 05:32:47;;;;;;;9.55;9.05;;;;;;;5.70;100.00;100966.38;5014661;28;20060;-70
2022/12/25 05:35:13;;;;;;;8.80;8.40;;;;;;;5.69;100.00;100976.09;5015107;28;20083;-69
2022/12/25 05:37:39;;;;;;;9.63;9.15;;;;;;;5.64;100.00;100965.09;5014828;28;20038;-68
2022/12/25 05:40:05;;;;;;;9.00;8.60;;;;;;;5.78;100.00;100980.53;5014655;28;20037;-68
2022/12/25 05:42:30;;;;;;;9.73;9.23;;;;;;;5.79;100.00;100976.94;5014504;28;20084;-69
2022/12/25 05:44:56;;;;;;;8.98;8.57;;;;;;;5.84;100.00;100989.72;5013903;28;20018;-69
2022/12/25 05:47:21;;;;;;;9.57;9.10;;;;;;;5.81;100.00;100985.56;5014832;28;20029;-70
2022/12/25 05:49:47;;;;;;;9.13;8.73;;;;;;;5.82;100.00;100976.69;5014709;28;20083;-69
2022/12/25 05:52:12;;;;;;;9.27;8.88;;;;;;;5.94;100.00;100979.25;5014626;28;20010;-69
2022/12/25 05:54:38;;;;;;;9.80;9.30;;;;;;;5.83;100.00;100983.63;5014181;28;20045;-69
2022/12/25 05:57:03;;;;;;;9.02;8.63;;;;;;;5.89;100.00;100981.44;5013876;28;20481;-70
2022/12/25 05:59:30;;;;;;;8.80;8.40;;;;;;;5.84;100.00;100979.19;5014642;28;20041;-69
2022/12/25 06:01:56;;;;;;;8.77;8.38;;;;;;;5.86;100.00;100987.78;5013234;28;20033;-69
2022/12/25 06:04:22;;;;;;;8.77;8.38;;;;;;;5.83;100.00;100977.53;5014456;28;20034;-69
2022/12/25 06:06:48;;;;;;;9.23;8.82;;;;;;;5.89;100.00;100997.25;5014590;28;20025;-70
2022/12/25 06:09:13;;;;;;;8.70;8.30;;;;;;;5.88;100.00;100993.78;5014403;28;20809;-70
2022/12/25 06:11:39;;;;;;;9.38;8.93;;;;;;;5.98;100.00;100994.66;5013347;28;20064;-69
2022/12/25 06:14:05;;;;;;;9.30;8.90;;;;;;;5.96;100.00;101004.50;5006249;28;20128;-69
2022/12/25 06:16:30;;;;;;;9.52;9.07;;;;;;;6.00;100.00;101007.69;5014230;28;20030;-69
2022/12/25 06:18:56;;;;;;;9.32;8.93;;;;;;;5.92;100.00;101003.09;5014171;28;20026;-69
2022/12/25 06:21:22;;;;;;;9.05;8.65;;;;;;;5.88;100.00;101001.66;5014095;28;20034;-70
2022/12/25 06:23:47;;;;;;;9.60;9.10;;;;;;;5.95;100.00;101008.09;5013913;28;20026;-70
2022/12/25 06:26:16;;;;;;;8.98;8.57;;;;;;;6.02;100.00;101011.88;5013893;28;20401;-70
2022/12/25 06:28:42;;;;;;;9.32;8.93;;;;;;;5.96;100.00;101016.84;5014126;28;20104;-69
2022/12/25 06:31:17;;;;;;;8.90;8.50;;;;;;;5.90;100.00;101014.69;5013550;28;20026;-70
2022/12/25 06:33:43;;;;;;;9.43;9.00;;;;;;;5.95;100.00;101017.78;5010286;28;20033;-69
2022/12/25 06:36:15;;;;;;;9.27;8.88;;;;;;;6.04;100.00;101023.09;5014106;28;20037;-69
2022/12/25 06:38:40;;;;;;;9.90;9.40;;;;;;;5.99;100.00;101027.09;5011851;28;20069;-71
2022/12/25 06:41:21;;;;;;;9.20;8.80;;;;;;;5.97;100.00;101039.56;5013674;28;20478;-69
2022/12/25 06:43:48;;;;;;;9.20;8.80;;;;;;;6.04;100.00;101046.81;5013595;28;20444;-69
2022/12/25 06:46:14;;;;;;;9.10;8.70;;;;;;;6.08;100.00;101042.91;5013691;28;20026;-70
2022/12/25 06:48:45;;;;;;;9.23;8.82;;;;;;;6.01;100.00;101054.13;5012922;28;20375;-69
2022/12/25 06:51:11;;;;;;;9.23;8.82;;;;;;;6.08;100.00;101058.72;5013343;28;20018;-70
2022/12/25 06:53:37;;;;;;;9.40;9.00;;;;;;;6.09;100.00;101063.03;5013322;28;20116;-69
2022/12/25 06:56:03;;;;;;;9.10;8.70;;;;;;;6.12;100.00;101064.56;5012463;28;20108;-69
2022/12/25 06:58:29;;;;;;;9.23;8.82;;;;;;;6.00;100.00;101066.47;5013170;28;20496;-70
2022/12/25 07:00:54;;;;;;;9.15;8.75;;;;;;;6.05;100.00;101081.88;5013378;28;20032;-70
2022/12/25 07:03:21;;;;;;;9.82;9.32;;;;;;;6.06;100.00;101073.84;5013034;28;20113;-69
2022/12/25 07:05:46;;;;;;;9.30;8.90;;;;;;;6.03;100.00;101086.44;5012353;28;20030;-69
2022/12/25 07:08:12;;;;;;;9.23;8.82;;;;;;;5.96;100.00;101082.66;5011017;28;20040;-69
2022/12/25 07:10:38;;;;;;;9.85;9.35;;;;;;;6.07;100.00;101083.41;5012169;28;20438;-69
2022/12/25 07:13:03;;;;;;;8.95;8.55;;;;;;;6.06;100.00;101091.44;5013330;28;20025;-69
2022/12/25 07:15:29;;;;;;;9.63;9.15;;;;;;;5.99;100.00;101077.13;5013142;28;20469;-69
2022/12/25 07:17:54;;;;;;;9.18;8.77;;;;;;;6.14;100.00;101086.34;5028028;28;20107;-69
2022/12/25 07:20:20;;;;;;;9.40;9.00;;;;;;;6.07;100.00;101093.09;5013263;28;20037;-69
2022/12/25 07:22:45;;;;;;;9.13;8.73;;;;;;;6.09;100.00;101093.78;5011914;28;20061;-68
2022/12/25 07:25:11;;;;;;;9.30;8.90;;;;;;;6.07;100.00;101096.56;5012987;28;20034;-69
2022/12/25 07:27:36;;;;;;;9.02;8.63;;;;;;;6.03;100.00;101100.44;5013024;28;20034;-69
2022/12/25 07:30:03;;;;;;;9.00;8.60;;;;;;;6.05;100.00;101106.41;5012926;28;20079;-69
2022/12/25 07:32:31;;;;;;;9.52;9.05;;;;;;;6.14;100.00;101109.22;5012243;28;20028;-70
2022/12/25 07:34:57;;;;;;;9.40;9.00;;;;;;;6.08;100.00;101103.50;5010591;28;20025;-69
2022/12/25 07:37:22;;;;;;;9.63;9.13;;;;;;;6.03;100.00;101118.06;5011105;28;20033;-69
2022/12/25 07:39:48;;;;;;;9.10;8.70;;;;;;;5.96;100.00;101120.38;5011917;28;20022;-69
2022/12/25 07:42:13;;;;;;;9.18;8.77;;;;;;;6.08;100.00;101123.75;5012587;28;20077;-68
2022/12/25 07:44:39;;;;;;;11.50;10.82;;;;;;;6.19;100.00;101134.22;5012091;28;20033;-69
2022/12/25 07:47:04;;;;;;;9.10;8.70;;;;;;;6.08;100.00;101119.31;5011309;28;20025;-68
2022/12/25 07:49:30;;;;;;;9.20;8.80;;;;;;;6.14;100.00;101133.75;5012602;28;20033;-70
2022/12/25 07:51:56;;;;;;;9.00;8.60;;;;;;;6.15;100.00;101134.59;5010738;28;20496;-70
2022/12/25 07:54:21;;;;;;;9.70;9.20;;;;;;;6.10;100.00;101145.53;5011930;28;20038;-70
2022/12/25 07:56:56;;;;;;;9.13;8.73;;;;;;;6.11;100.00;101149.84;5010421;28;20028;-69
2022/12/25 07:59:21;;;;;;;9.20;8.80;;;;;;;6.34;100.00;101156.59;4994583;28;20493;-69
2022/12/25 08:01:49;;;;;;;8.70;8.30;;;;;;;6.23;100.00;101161.94;5012304;28;20040;-70
2022/12/25 08:04:14;;;;;;;9.50;9.00;;;;;;;6.40;100.00;101165.78;5010460;28;20029;-69
2022/12/25 08:06:40;;;;;;;9.05;8.65;;;;;;;6.43;100.00;101162.88;5010880;28;20030;-70
2022/12/25 08:09:08;;;;;;;9.10;8.70;;;;;;;6.45;100.00;101165.38;5012171;28;20029;-70
2022/12/25 08:11:33;;;;;;;9.73;9.23;;;;;;;6.41;100.00;101162.19;5012120;28;20029;-69
2022/12/25 08:13:59;;;;;;;9.13;8.73;;;;;;;6.18;100.00;101165.97;5010613;28;20041;-69
2022/12/25 08:16:25;;;;;;;9.70;9.20;;;;;;;6.09;100.00;101167.53;5010635;28;20481;-70
2022/12/25 08:18:50;;;;;;;9.18;8.77;;;;;;;6.18;100.00;101179.13;5010267;28;20037;-70
2022/12/25 08:21:16;;;;;;;8.95;8.55;;;;;;;6.25;100.00;101185.53;5011012;28;20105;-69
2022/12/25 08:23:43;;;;;;;9.63;9.13;;;;;;;6.18;100.00;101182.59;5012455;28;20045;-70
2022/12/25 08:26:16;;;;;;;8.85;8.45;;;;;;;6.12;100.00;101179.66;5010225;28;20036;-70
2022/12/25 08:28:41;;;;;;;9.20;8.80;;;;;;;6.16;100.00;101189.78;5010294;28;20025;-70
2022/12/25 08:31:19;;;;;;;9.18;8.77;;;;;;;6.31;100.00;101193.75;5009938;28;20076;-71
2022/12/25 08:33:45;;;;;;;9.23;8.82;;;;;;;6.30;100.00;101196.50;5011499;28;20021;-70
2022/12/25 08:36:11;;;;;;;9.00;8.60;;;;;;;6.37;100.00;101198.50;5011954;28;20044;-70
2022/12/25 08:38:38;;;;;;;9.23;8.82;;;;;;;6.49;100.00;101204.53;5011886;28;20449;-71
2022/12/25 08:41:03;;;;;;;9.13;8.73;;;;;;;6.54;100.00;101199.69;5011905;28;20022;-70
2022/12/25 08:43:29;;;;;;;9.27;8.88;;;;;;;6.26;100.00;101206.50;5011572;28;20107;-69
2022/12/25 08:45:55;;;;;;;9.10;8.70;;;;;;;6.23;100.00;101206.72;5011522;28;20453;-70
2022/12/25 08:48:20;;;;;;;9.52;9.02;;;;;;;6.40;100.00;101204.50;5010935;28;20032;-69
2022/12/25 08:50:48;;;;;;;9.20;8.80;;;;;;;6.37;100.00;101209.03;5009862;28;20030;-70
2022/12/25 08:53:14;;;;;;;9.77;9.27;;;;;;;6.36;100.00;101202.09;5011753;28;20104;-70
2022/12/25 08:55:40;;;;;;;9.05;8.65;;;;;;;6.45;100.00;101207.53;5011377;28;20468;-69
2022/12/25 08:58:06;;;;;;;8.90;8.50;;;;;;;6.38;100.00;101221.25;5011841;28;20105;-70
2022/12/25 09:00:32;;;;;;;8.95;8.55;;;;;;;6.47;100.00;101210.91;5009851;28;20030;-69
2022/12/25 09:02:57;;;;;;;8.85;8.45;;;;;;;6.64;100.00;101221.66;5011741;28;20028;-70
2022/12/25 09:05:23;;;;;;;9.10;8.70;;;;;;;6.65;100.00;101223.31;5011347;28;20030;-70
2022/12/25 09:07:49;;;;;;;9.18;8.77;;;;;;;6.73;100.00;101213.91;5011668;28;20076;-70
2022/12/25 09:10:14;;;;;;;9.70;9.20;;;;;;;6.79;100.00;101219.50;5009167;28;20053;-69
2022/12/25 09:12:39;;;;;;;8.98;8.57;;;;;;;6.80;100.00;101226.44;5011649;28;20030;-69
2022/12/25 09:15:05;;;;;;;8.98;8.57;;;;;;;6.82;100.00;101224.50;5010456;28;20028;-69
2022/12/25 09:17:32;;;;;;;9.10;8.70;;;;;;;6.54;100.00;101212.88;5011516;28;20428;-69
2022/12/25 09:19:57;;;;;;;9.55;9.10;;;;;;;6.63;100.00;101220.00;5011575;28;20489;-69
2022/12/25 09:22:23;;;;;;;9.00;8.60;;;;;;;6.51;100.00;101223.66;5010564;28;20076;-69
2022/12/25 09:24:48;;;;;;;9.00;8.60;;;;;;;6.71;100.00;101226.41;5011378;28;20124;-70
2022/12/25 09:27:14;;;;;;;9.30;8.90;;;;;;;6.77;100.00;101234.63;5011015;28;20037;-70
2022/12/25 09:29:39;;;;;;;10.07;9.57;;;;;;;6.79;100.00;101237.94;5011286;28;20117;-69
2022/12/25 09:32:06;;;;;;;9.13;8.73;;;;;;;6.82;100.00;101240.31;5011163;28;20017;-69
2022/12/25 09:34:32;;;;;;;8.88;8.48;;;;;;;6.85;100.00;101240.06;5014801;28;20113;-69
2022/12/25 09:36:57;;;;;;;9.23;8.82;;;;;;;6.76;100.00;101240.88;5014892;28;20048;-69
2022/12/25 09:39:23;;;;;;;9.52;9.05;;;;;;;6.61;100.00;101242.16;5012702;28;20474;-68
2022/12/25 09:41:55;;;;;;;9.60;9.10;;;;;;;6.70;100.00;101246.66;5014590;28;20520;-69
2022/12/25 09:44:25;;;;;;;9.50;9.10;;;;;;;6.74;100.00;101245.41;4998576;28;20022;-69
2022/12/25 09:47:04;;;;;;;9.82;9.32;;;;;;;6.89;100.00;101244.09;5010816;28;20128;-69
2022/12/25 09:49:29;;;;;;;8.90;8.50;;;;;;;6.95;100.00;101247.16;5014322;28;20067;-69
2022/12/25 09:52:04;;;;;;;9.00;8.60;;;;;;;6.98;100.00;101241.63;5014297;28;20097;-69
2022/12/25 09:54:43;;;;;;;9.30;8.90;;;;;;;6.99;100.00;101238.03;5012998;28;20050;-69
2022/12/25 09:57:13;;;;;;;9.32;8.93;;;;;;;6.89;100.00;101238.81;5010901;28;20095;-70
2022/12/25 09:59:42;;;;;;;9.20;8.80;;;;;;;7.10;100.00;101248.47;5014546;28;20405;-69
2022/12/25 10:02:26;;;;;;;9.48;9.05;;;;;;;7.17;100.00;101250.44;5029612;28;20070;-69
2022/12/25 10:05:00;;;;;;;9.27;8.87;;;;;;;7.29;100.00;101245.88;5012276;28;20393;-71
2022/12/25 10:07:53;;;;;;;8.90;8.50;;;;;;;7.15;100.00;101244.47;5014068;28;20026;-70
2022/12/25 10:11:08;;;;;;;9.30;8.90;;;;;;;7.03;100.00;101236.78;5014353;28;20084;-68
2022/12/25 10:13:51;;;;;;;9.80;9.30;;;;;;;7.26;100.00;101242.66;4999362;28;20037;-69
2022/12/25 10:16:38;;;;;;;11.05;10.45;;;;;;;7.35;100.00;101241.88;5011544;28;20080;-69
2022/12/25 10:19:28;;;;;;;10.15;9.65;;;;;;;7.19;100.00;101234.47;5013665;28;20022;-69
2022/12/25 10:22:00;;;;;;;9.20;8.80;;;;;;;7.36;100.00;101235.63;5013759;28;20026;-69
2022/12/25 10:24:42;;;;;;;9.30;8.90;;;;;;;7.27;100.00;101250.47;5011741;28;20032;-71
2022/12/25 10:27:18;;;;;;;9.13;8.73;;;;;;;7.42;100.00;101237.72;5014017;28;20077;-69
2022/12/25 10:29:48;;;;;;;9.27;8.88;;;;;;;7.26;100.00;101226.84;5011580;28;20037;-69
2022/12/25 10:32:14;;;;;;;9.75;9.25;;;;;;;7.60;100.00;101237.88;5013790;28;20488;-69
2022/12/25 10:34:42;;;;;;;9.43;9.00;;;;;;;7.54;100.00;101235.78;5013424;28;20025;-69
2022/12/25 10:37:10;;;;;;;9.65;9.20;;;;;;;7.55;100.00;101243.56;5013804;28;20025;-69
2022/12/25 10:39:36;;;;;;;9.20;8.80;;;;;;;7.54;100.00;101246.34;5013249;28;20026;-70
2022/12/25 10:42:43;;;;;;;9.20;8.80;;;;;;;7.53;100.00;101244.69;5013574;28;20105;-70
2022/12/25 10:45:09;;;;;;;9.27;8.88;;;;;;;7.51;100.00;101241.34;4952526;28;20442;-70
2022/12/25 10:47:39;;;;;;;9.20;8.80;;;;;;;7.50;100.00;101256.34;4999519;28;20040;-70
2022/12/25 10:50:19;;;;;;;9.30;8.90;;;;;;;7.66;100.00;101251.38;5013620;28;20026;-70
2022/12/25 10:52:58;;;;;;;9.40;9.00;;;;;;;7.80;100.00;101260.69;5011498;28;20049;-70
2022/12/25 10:55:23;;;;;;;9.38;8.98;;;;;;;7.73;100.00;101262.22;5011334;28;20111;-68
2022/12/25 10:57:49;;;;;;;9.02;8.63;;;;;;;7.70;100.00;101241.34;5013721;28;20689;-69
2022/12/25 11:00:29;;;;;;;9.15;8.75;;;;;;;7.95;100.00;101261.94;5013750;28;20021;-69
2022/12/25 11:02:55;;;;;;;8.88;8.48;;;;;;;7.94;100.00;101248.88;5012327;28;20030;-70
2022/12/25 11:05:28;;;;;;;9.48;9.07;;;;;;;7.94;100.00;101265.56;5012066;28;20103;-69
2022/12/25 11:07:55;;;;;;;8.82;8.43;;;;;;;8.01;100.00;101261.38;5011147;28;20041;-69
2022/12/25 11:10:21;;;;;;;9.30;8.90;;;;;;;7.82;100.00;101261.38;5013478;28;20021;-69
2022/12/25 11:12:46;;;;;;;9.43;9.02;;;;;;;7.90;100.00;101273.88;5013116;28;20503;-69
2022/12/25 11:15:34;;;;;;;9.25;8.85;;;;;;;7.97;100.00;101277.63;5012961;28;20110;-70
2022/12/25 11:17:59;;;;;;;9.63;9.18;;;;;;;7.89;100.00;101275.69;5010544;28;20026;-70
2022/12/25 11:20:25;;;;;;;9.45;9.05;;;;;;;8.09;100.00;101278.34;5012351;28;20037;-69
2022/12/25 11:22:51;;;;;;;9.23;8.82;;;;;;;7.99;100.00;101284.44;5012946;28;20030;-69
2022/12/25 11:25:25;;;;;;;9.70;9.25;;;;;;;7.73;100.00;101280.69;5012945;28;20125;-69
2022/12/25 11:27:58;;;;;;;;;;;;;;;7.92;100.00;101280.69;5013183;28;20099;-68
2022/12/25 11:30:24;;;;;;;9.18;8.77;;;;;;;7.70;100.00;101276.50;5011495;28;19914;-71
2022/12/25 11:32:54;;;;;;;9.20;8.80;;;;;;;7.95;100.00;101282.25;5012553;28;20075;-69
2022/12/25 11:35:23;;;;;;;10.05;9.55;;;;;;;7.95;100.00;101282.25;5012448;28;20073;-70
2022/12/25 11:37:51;;;;;;;9.45;9.00;;;;;;;7.92;100.00;101285.97;5011874;28;20030;-70
2022/12/25 11:40:23;;;;;;;9.30;8.90;;;;;;;7.95;100.00;101284.88;5012458;28;20104;-70
2022/12/25 11:43:08;;;;;;;9.18;8.77;;;;;;;7.95;100.00;101288.34;5010442;28;20026;-70
2022/12/25 11:45:40;;;;;;;10.18;9.68;;;;;;;7.91;100.00;101280.84;5012429;28;20092;-69
2022/12/25 11:48:25;;;;;;;9.55;9.13;;;;;;;7.88;100.00;101273.19;5010303;28;20497;-70
2022/12/25 11:50:54;;;;;;;9.45;9.05;;;;;;;7.98;100.00;101281.94;5011037;28;20485;-69
2022/12/25 11:53:43;;;;;;;9.90;9.40;;;;;;;7.88;100.00;101281.94;5012404;28;20443;-69
2022/12/25 11:56:22;;;;;;;9.23;8.82;;;;;;;7.88;100.00;101279.31;5010155;28;20117;-68
2022/12/25 11:59:08;;;;;;;8.95;8.55;;;;;;;7.98;100.00;101287.22;5010135;28;20544;-70
2022/12/25 12:01:48;;;;;;;9.63;9.18;;;;;;;7.82;100.00;101292.25;5010292;28;20061;-69
2022/12/25 12:04:35;;;;;;;9.93;9.43;;;;;;;7.93;100.00;101295.59;5012483;28;20022;-69
2022/12/25 12:07:19;;;;;;;10.23;9.73;;;;;;;7.96;100.00;101295.31;5011434;28;20040;-69
2022/12/25 12:10:01;;;;;;;9.40;9.00;;;;;;;7.98;100.00;101287.22;5012064;28;20034;-69
2022/12/25 12:12:51;;;;;;;9.90;9.40;;;;;;;8.09;100.00;101299.47;5011169;28;20054;-68
2022/12/25 12:15:35;;;;;;;9.55;9.10;;;;;;;8.00;100.00;101301.97;5012320;28;20030;-69
2022/12/25 12:18:27;;;;;;;9.30;8.90;;;;;;;7.98;100.00;101297.78;5012291;28;20022;-69
2022/12/25 12:21:07;;;;;;;10.13;9.63;;;;;;;7.90;100.00;101300.31;5010073;28;20642;-70
2022/12/25 12:24:10;;;;;;;9.50;9.10;;;;;;;7.81;100.00;101301.97;5010440;28;20033;-70
2022/12/25 12:26:39;;;;;;;9.77;9.27;;;;;;;7.88;100.00;101308.38;5011897;28;20439;-69
2022/12/25 12:29:19;;;;;;;9.32;8.93;;;;;;;7.88;100.00;101300.44;5026627;28;20514;-70
2022/12/25 12:31:48;;;;;;;9.85;9.35;;;;;;;7.79;100.00;101282.78;5011568;28;20026;-70
2022/12/25 12:34:28;;;;;;;9.35;8.95;;;;;;;7.90;100.00;101300.31;5012168;28;20033;-70
2022/12/25 12:37:00;;;;;;;9.60;9.10;;;;;;;7.91;100.00;101312.53;5011621;28;20030;-69
2022/12/25 12:39:32;;;;;;;9.40;9.00;;;;;;;7.80;100.00;101321.44;5011887;28;20030;-69
2022/12/25 12:41:57;;;;;;;9.38;8.98;;;;;;;7.89;100.00;101322.41;5011766;28;20072;-69
2022/12/25 12:44:29;;;;;;;9.20;8.80;;;;;;;7.76;100.00;101318.22;5011755;28;20065;-70
2022/12/25 12:46:56;;;;;;;9.18;8.77;;;;;;;7.66;100.00;101324.47;5009065;28;20120;-70
2022/12/25 12:49:31;;;;;;;9.93;9.43;;;;;;;7.74;100.00;101333.38;5010402;28;20025;-69
2022/12/25 12:52:06;;;;;;;9.20;8.80;;;;;;;7.68;100.00;101343.66;5011932;28;20496;-70
2022/12/25 12:54:31;;;;;;;9.50;9.10;;;;;;;7.85;100.00;101345.63;5011351;28;20046;-70
2022/12/25 12:57:03;;;;;;;9.30;8.90;;;;;;;7.84;100.00;101356.31;5012228;28;20499;-70
2022/12/25 12:59:46;;;;;;;9.20;8.80;;;;;;;7.75;100.00;101358.81;5009942;28;20079;-69
2022/12/25 13:02:40;;;;;;;9.13;8.73;;;;;;;7.72;100.00;101359.09;5008959;28;20555;-70
2022/12/25 13:05:41;;;;;;;9.43;9.02;;;;;;;7.73;100.00;101368.69;5008659;28;20032;-68
2022/12/25 13:08:29;;;;;;;8.90;8.50;;;;;;;7.78;100.00;101368.25;5012305;28;20022;-69
2022/12/25 13:11:25;;;;;;;9.20;8.80;;;;;;;7.72;100.00;101368.81;5015277;28;20025;-68
2022/12/25 13:13:53;;;;;;;8.82;8.43;;;;;;;7.70;100.00;101368.09;5015607;28;20045;-69
2022/12/25 13:16:30;;;;;;;9.05;8.65;;;;;;;7.64;100.00;101380.06;5015412;28;20022;-69
2022/12/25 13:18:58;;;;;;;9.38;8.93;;;;;;;7.70;100.00;101381.31;5013040;28;20133;-69